Time;durP1;ratioP1;P1;durP2;ratioP2;P2;SDS_P1;SDS_P2;PMS_P1;PMS_P2;Temp;Humidity;BMP_temperature;BMP_pressure;BME280_temperature;BME280_humidity;BME280_pressure;Samples;Min_cycle;Max_cycle;Signal;HPM_P1;HPM_P2
2024/03/19 00:01:40;;;;;;;5.50;2.00;;;9.30;99.90;;;;;;5069610;28;20877;-80
2024/03/19 00:04:05;;;;;;;2.20;1.90;;;10.70;99.90;;;;;;5055930;28;20432;-80
2024/03/19 00:06:31;;;;;;;2.00;1.80;;;9.10;99.90;;;;;;5060846;28;20560;-80
2024/03/19 00:08:57;;;;;;;3.03;1.90;;;9.30;99.90;;;;;;5056964;28;20372;-81
2024/03/19 00:11:22;;;;;;;2.50;1.77;;;8.90;99.90;;;;;;5065644;28;20394;-80
2024/03/19 00:13:51;;;;;;;2.83;1.80;;;9.30;99.90;;;;;;5057295;28;20391;-79
2024/03/19 00:16:17;;;;;;;2.33;1.63;;;9.10;99.90;;;;;;5075373;28;20435;-80
2024/03/19 00:18:42;;;;;;;1.80;1.70;;;9.00;99.90;;;;;;5075825;28;20394;-79
2024/03/19 00:21:10;;;;;;;2.10;1.90;;;8.60;99.90;;;;;;5038874;28;21065;-79
2024/03/19 00:23:36;;;;;;;1.60;1.48;;;9.10;99.90;;;;;;5037018;28;20393;-80
2024/03/19 00:26:01;;;;;;;1.70;1.60;;;8.90;99.90;;;;;;5061399;28;20857;-80
2024/03/19 00:28:27;;;;;;;3.13;1.70;;;8.90;99.90;;;;;;5055104;28;20458;-80
2024/03/19 00:30:54;;;;;;;2.37;1.60;;;8.90;99.90;;;;;;5071080;28;20387;-79
2024/03/19 00:33:21;;;;;;;3.75;1.63;;;8.90;99.90;;;;;;5056267;28;20399;-80
2024/03/19 00:35:47;;;;;;;2.00;1.80;;;8.70;99.90;;;;;;5070636;28;20601;-80
2024/03/19 00:38:13;;;;;;;1.87;1.60;;;9.00;99.90;;;;;;5065453;28;20448;-80
2024/03/19 00:40:40;;;;;;;1.70;1.60;;;8.80;99.90;;;;;;5057521;28;20422;-81
2024/03/19 00:43:05;;;;;;;2.30;1.70;;;8.70;99.90;;;;;;5056978;28;20400;-81
2024/03/19 00:45:31;;;;;;;2.80;1.83;;;9.00;99.90;;;;;;5074668;28;20953;-79
2024/03/19 00:47:56;;;;;;;1.70;1.60;;;8.60;99.90;;;;;;5059931;28;20392;-79
2024/03/19 00:50:22;;;;;;;2.55;1.55;;;8.60;99.90;;;;;;5041392;28;20419;-79
2024/03/19 00:52:47;;;;;;;2.50;1.50;;;8.50;99.90;;;;;;5043906;28;20394;-79
2024/03/19 00:55:13;;;;;;;1.80;1.70;;;8.80;99.90;;;;;;5061462;28;20397;-80
2024/03/19 00:57:39;;;;;;;1.70;1.60;;;8.90;99.90;;;;;;5064885;28;20404;-78
2024/03/19 01:00:11;;;;;;;2.90;1.42;;;8.60;99.90;;;;;;5048275;28;20392;-80
2024/03/19 01:02:38;;;;;;;1.50;1.40;;;8.90;99.90;;;;;;5075290;28;20437;-80
2024/03/19 01:05:08;;;;;;;1.70;1.60;;;8.60;99.90;;;;;;5066539;28;20769;-80
2024/03/19 01:07:37;;;;;;;1.70;1.23;;;9.00;99.90;;;;;;5072740;28;20388;-80
2024/03/19 01:10:03;;;;;;;1.70;1.50;;;8.90;99.90;;;;;;5076682;28;20473;-79
2024/03/19 01:12:29;;;;;;;3.65;1.60;;;8.90;99.90;;;;;;5076243;28;20383;-80
2024/03/19 01:14:55;;;;;;;1.73;1.30;;;9.00;99.90;;;;;;5064957;28;20412;-80
2024/03/19 01:17:22;;;;;;;1.50;1.40;;;9.00;99.90;;;;;;5056120;28;20778;-81
2024/03/19 01:19:47;;;;;;;1.30;1.20;;;8.50;99.90;;;;;;5042055;28;20827;-80
2024/03/19 01:22:13;;;;;;;1.20;1.10;;;8.90;99.90;;;;;;5074102;28;20407;-80
2024/03/19 01:24:39;;;;;;;1.75;1.48;;;8.40;99.90;;;;;;5046886;28;20408;-79
2024/03/19 01:27:05;;;;;;;1.70;1.50;;;8.80;99.90;;;;;;5040080;28;20387;-81
2024/03/19 01:29:30;;;;;;;1.50;1.40;;;8.70;99.90;;;;;;5039724;28;20780;-81
2024/03/19 01:31:56;;;;;;;1.30;1.20;;;8.40;99.90;;;;;;5053826;28;20391;-81
2024/03/19 01:34:22;;;;;;;2.17;1.30;;;8.50;99.90;;;;;;5056816;28;20458;-81
2024/03/19 01:36:47;;;;;;;5.20;1.70;;;8.60;99.90;;;;;;5058994;28;20415;-80
2024/03/19 01:39:13;;;;;;;2.67;1.40;;;8.50;99.90;;;;;;5075067;28;20383;-81
2024/03/19 01:41:39;;;;;;;2.30;1.30;;;8.50;99.90;;;;;;5048744;28;20385;-81
2024/03/19 01:44:07;;;;;;;3.72;1.67;;;8.30;99.90;;;;;;5054803;28;20385;-81
2024/03/19 01:46:33;;;;;;;3.20;1.60;;;8.80;99.90;;;;;;5054072;28;20409;-81
2024/03/19 01:48:59;;;;;;;1.80;1.27;;;8.20;99.90;;;;;;5035951;28;20884;-81
2024/03/19 01:51:26;;;;;;;2.17;1.50;;;8.30;99.90;;;;;;5054783;28;20901;-81
2024/03/19 01:53:53;;;;;;;3.70;1.70;;;7.90;99.90;;;;;;5056196;28;20411;-80
2024/03/19 01:56:19;;;;;;;1.40;1.30;;;8.30;99.90;;;;;;5056393;28;20396;-81
2024/03/19 01:58:49;;;;;;;2.08;1.67;;;8.10;99.90;;;;;;5073776;28;20409;-81
2024/03/19 02:01:15;;;;;;;1.77;1.27;;;8.00;99.90;;;;;;5074229;28;20402;-81
2024/03/19 02:03:45;;;;;;;1.35;1.25;;;8.30;99.90;;;;;;5073935;28;20402;-81
2024/03/19 02:06:13;;;;;;;2.17;1.55;;;8.50;99.90;;;;;;5055782;28;20786;-81
2024/03/19 02:08:38;;;;;;;3.70;1.40;;;8.10;99.90;;;;;;5054578;28;20778;-79
2024/03/19 02:11:04;;;;;;;1.73;1.50;;;8.20;99.90;;;;;;5073240;28;20395;-79
2024/03/19 02:13:30;;;;;;;1.87;1.67;;;8.10;99.90;;;;;;5066983;28;20382;-80
2024/03/19 02:15:55;;;;;;;1.87;1.63;;;7.90;99.90;;;;;;5055268;28;20749;-81
2024/03/19 02:18:21;;;;;;;1.60;1.50;;;8.30;99.90;;;;;;5054727;28;20935;-80
2024/03/19 02:20:47;;;;;;;1.30;1.20;;;7.80;99.90;;;;;;5054506;28;20385;-80
2024/03/19 02:23:12;;;;;;;1.50;1.40;;;7.90;99.90;;;;;;5054607;28;20439;-80
2024/03/19 02:25:38;;;;;;;2.00;1.40;;;7.40;99.90;;;;;;5052596;28;20414;-79
2024/03/19 02:28:04;;;;;;;1.48;1.30;;;7.80;99.90;;;;;;5058018;28;20414;-80
2024/03/19 02:30:29;;;;;;;1.80;1.30;;;8.10;99.90;;;;;;5083790;28;20399;-78
2024/03/19 02:32:55;;;;;;;1.40;1.30;;;7.70;99.90;;;;;;5083170;28;20473;-78
2024/03/19 02:35:21;;;;;;;2.33;1.45;;;7.90;99.90;;;;;;5064581;28;20457;-78
2024/03/19 02:37:46;;;;;;;1.90;1.38;;;7.80;99.90;;;;;;5092364;22;20435;-79
2024/03/19 02:40:12;;;;;;;2.43;1.50;;;7.70;99.90;;;;;;5078864;28;20381;-80
2024/03/19 02:42:37;;;;;;;1.47;1.17;;;7.90;99.90;;;;;;5072281;28;20385;-80
2024/03/19 02:45:03;;;;;;;1.90;1.43;;;7.80;99.90;;;;;;5060388;28;20885;-80
2024/03/19 02:47:29;;;;;;;2.50;1.25;;;8.00;99.90;;;;;;5077394;28;20506;-80
2024/03/19 02:49:54;;;;;;;1.20;1.10;;;7.60;99.90;;;;;;5073745;28;20392;-79
2024/03/19 02:52:20;;;;;;;1.50;1.40;;;7.40;99.90;;;;;;5074308;28;20395;-80
2024/03/19 02:54:45;;;;;;;1.75;1.50;;;6.80;99.90;;;;;;5075927;28;20797;-80
2024/03/19 02:57:11;;;;;;;1.60;1.25;;;7.80;99.90;;;;;;5074235;28;20410;-80
2024/03/19 02:59:36;;;;;;;1.77;1.20;;;7.60;99.90;;;;;;5071182;28;20865;-80
2024/03/19 03:02:02;;;;;;;3.17;1.40;;;7.40;99.90;;;;;;5072886;28;20478;-80
2024/03/19 03:04:27;;;;;;;2.40;1.48;;;7.40;99.90;;;;;;5074744;28;20411;-80
2024/03/19 03:06:53;;;;;;;4.70;1.70;;;7.60;99.90;;;;;;5087475;28;20448;-80
2024/03/19 03:09:18;;;;;;;1.60;1.50;;;7.40;99.90;;;;;;5071564;28;20392;-79
2024/03/19 03:11:44;;;;;;;1.30;1.20;;;7.40;99.90;;;;;;5080036;28;20441;-79
2024/03/19 03:14:10;;;;;;;1.40;1.30;;;7.30;99.90;;;;;;5085742;28;20387;-80
2024/03/19 03:16:36;;;;;;;3.00;1.20;;;7.40;99.90;;;;;;5085630;28;20414;-78
2024/03/19 03:19:01;;;;;;;1.03;0.90;;;7.40;99.90;;;;;;5076548;28;20465;-78
2024/03/19 03:21:27;;;;;;;1.20;1.10;;;7.50;99.90;;;;;;5070520;28;20379;-80
2024/03/19 03:23:53;;;;;;;1.37;1.27;;;7.40;99.90;;;;;;5090051;28;20479;-80
2024/03/19 03:26:19;;;;;;;1.20;1.10;;;7.40;99.90;;;;;;5071578;28;20460;-80
2024/03/19 03:28:44;;;;;;;2.50;1.37;;;7.60;99.90;;;;;;5059357;28;20405;-80
2024/03/19 03:31:11;;;;;;;2.40;1.20;;;7.80;99.90;;;;;;5055113;28;20416;-80
2024/03/19 03:33:37;;;;;;;1.40;1.30;;;7.30;99.90;;;;;;5054416;28;20435;-80
2024/03/19 03:36:03;;;;;;;1.43;1.33;;;7.40;99.90;;;;;;5063596;28;20491;-80
2024/03/19 03:38:29;;;;;;;1.10;1.00;;;7.30;99.90;;;;;;5074748;28;20474;-80
2024/03/19 03:40:54;;;;;;;1.17;1.08;;;7.40;99.90;;;;;;5074664;28;20435;-80
2024/03/19 03:43:20;;;;;;;4.70;1.70;;;7.70;99.90;;;;;;5076110;28;20927;-80
2024/03/19 03:45:46;;;;;;;2.67;1.10;;;7.50;99.90;;;;;;5077371;28;20407;-79
2024/03/19 03:48:12;;;;;;;1.13;1.02;;;7.70;99.90;;;;;;5076443;28;20391;-80
2024/03/19 03:50:37;;;;;;;1.15;1.05;;;7.30;99.90;;;;;;5068364;28;20400;-80
2024/03/19 03:53:03;;;;;;;1.50;1.30;;;7.50;99.90;;;;;;5075223;28;20909;-80
2024/03/19 03:55:28;;;;;;;2.00;1.10;;;7.60;99.90;;;;;;5073726;28;20562;-80
2024/03/19 03:57:54;;;;;;;1.50;1.17;;;7.50;99.90;;;;;;5074350;28;20387;-79
2024/03/19 04:00:19;;;;;;;1.20;1.10;;;7.70;99.90;;;;;;5069064;28;20955;-79
2024/03/19 04:02:46;;;;;;;1.60;1.50;;;7.20;99.90;;;;;;5075886;28;20980;-80
2024/03/19 04:05:12;;;;;;;1.83;1.73;;;7.30;99.90;;;;;;5074017;28;20400;-79
2024/03/19 04:07:40;;;;;;;1.58;1.48;;;8.00;99.90;;;;;;5064156;28;20383;-79
2024/03/19 04:10:10;;;;;;;1.80;1.20;;;7.20;99.90;;;;;;5074203;28;20384;-80
2024/03/19 04:12:36;;;;;;;1.50;0.93;;;7.60;99.90;;;;;;5073640;28;20419;-80
2024/03/19 04:15:06;;;;;;;1.40;1.20;;;7.40;99.90;;;;;;5066253;28;20400;-80
2024/03/19 04:17:33;;;;;;;1.40;1.30;;;7.60;99.90;;;;;;5064441;28;20393;-80
2024/03/19 04:19:59;;;;;;;2.30;1.40;;;6.60;99.90;;;;;;5053589;28;20457;-80
2024/03/19 04:22:24;;;;;;;1.60;1.20;;;7.20;99.90;;;;;;5053760;28;20596;-80
2024/03/19 04:24:50;;;;;;;1.40;1.00;;;6.90;99.90;;;;;;5064229;28;20511;-80
2024/03/19 04:27:15;;;;;;;1.30;1.20;;;7.50;99.90;;;;;;5072445;28;20407;-80
2024/03/19 04:29:41;;;;;;;1.50;1.10;;;;;;;;;;5074792;28;20415;-80
2024/03/19 04:32:07;;;;;;;2.03;1.30;;;7.10;99.90;;;;;;5069300;28;20750;-80
2024/03/19 04:34:33;;;;;;;4.28;1.40;;;7.00;99.90;;;;;;5071065;28;20463;-80
2024/03/19 04:36:59;;;;;;;1.52;1.30;;;;;;;;;;5074013;28;20406;-80
2024/03/19 04:39:24;;;;;;;2.10;1.30;;;7.20;99.90;;;;;;5073677;28;20502;-80
2024/03/19 04:41:50;;;;;;;1.10;1.00;;;6.80;99.90;;;;;;5063229;28;20389;-80
2024/03/19 04:44:16;;;;;;;1.70;1.20;;;6.80;99.90;;;;;;5065696;28;20399;-80
2024/03/19 04:46:41;;;;;;;2.00;1.50;;;7.10;99.90;;;;;;5071324;28;20472;-80
2024/03/19 04:49:07;;;;;;;1.27;1.17;;;6.90;99.90;;;;;;5063740;28;20381;-80
2024/03/19 04:51:33;;;;;;;3.10;1.30;;;6.70;99.90;;;;;;5064226;28;20439;-80
2024/03/19 04:53:58;;;;;;;1.38;1.10;;;8.20;99.90;;;;;;5065973;28;20395;-79
2024/03/19 04:56:24;;;;;;;1.40;1.30;;;9.70;99.90;;;;;;5067726;28;20763;-80
2024/03/19 04:58:50;;;;;;;3.20;1.60;;;7.10;99.90;;;;;;5060766;28;20410;-80
2024/03/19 05:01:17;;;;;;;1.30;1.20;;;7.20;99.90;;;;;;5063909;28;20445;-80
2024/03/19 05:03:43;;;;;;;3.03;1.60;;;6.80;99.90;;;;;;5071234;28;20465;-80
2024/03/19 05:06:08;;;;;;;2.57;1.30;;;6.30;99.90;;;;;;5069638;28;21087;-80
2024/03/19 05:08:35;;;;;;;2.20;1.50;;;7.20;99.90;;;;;;5062988;28;20475;-79
2024/03/19 05:11:00;;;;;;;2.55;1.80;;;7.10;99.90;;;;;;5061159;28;20408;-80
2024/03/19 05:13:26;;;;;;;1.65;1.55;;;7.00;99.90;;;;;;5064335;28;20471;-80
2024/03/19 05:15:51;;;;;;;2.40;1.40;;;6.70;99.90;;;;;;5068265;28;20391;-81
2024/03/19 05:18:17;;;;;;;1.80;1.57;;;7.10;99.90;;;;;;5069528;28;20949;-80
2024/03/19 05:20:42;;;;;;;1.30;1.20;;;7.00;99.90;;;;;;5066921;28;20396;-81
2024/03/19 05:23:08;;;;;;;1.90;1.48;;;;;;;;;;5066491;28;20396;-80
2024/03/19 05:25:34;;;;;;;1.60;1.30;;;7.30;99.90;;;;;;5070413;28;20469;-81
2024/03/19 05:27:59;;;;;;;3.97;1.50;;;6.90;99.90;;;;;;5057284;28;20387;-80
2024/03/19 05:30:29;;;;;;;2.90;1.60;;;6.10;99.90;;;;;;5053027;28;20370;-80
2024/03/19 05:32:55;;;;;;;1.70;1.60;;;6.80;99.90;;;;;;5055677;28;20761;-80
2024/03/19 05:35:21;;;;;;;1.40;1.30;;;6.50;99.90;;;;;;5059377;28;20383;-79
2024/03/19 05:37:47;;;;;;;1.70;1.60;;;6.90;99.90;;;;;;5071908;28;20407;-81
2024/03/19 05:40:12;;;;;;;1.60;1.50;;;6.00;99.90;;;;;;5062274;28;20451;-81
2024/03/19 05:42:38;;;;;;;1.70;1.60;;;6.60;99.90;;;;;;5058419;28;20395;-81
2024/03/19 05:45:04;;;;;;;2.80;1.60;;;6.60;99.90;;;;;;5063208;28;20399;-81
2024/03/19 05:47:31;;;;;;;2.20;1.50;;;7.10;99.90;;;;;;5071165;28;20431;-81
2024/03/19 05:49:57;;;;;;;4.30;1.73;;;;;;;;;;5070517;28;20534;-81
2024/03/19 05:52:26;;;;;;;2.10;1.90;;;7.00;99.90;;;;;;5056952;28;20425;-81
2024/03/19 05:54:51;;;;;;;2.60;1.90;;;6.30;99.90;;;;;;5058682;28;20478;-80
2024/03/19 05:57:17;;;;;;;3.00;1.70;;;6.80;99.90;;;;;;5073541;28;20479;-81
2024/03/19 05:59:43;;;;;;;1.65;1.55;;;6.40;99.90;;;;;;5064629;28;20404;-82
2024/03/19 06:02:09;;;;;;;2.63;1.80;;;6.20;99.90;;;;;;5060715;28;20394;-81
2024/03/19 06:04:35;;;;;;;1.60;1.50;;;6.70;99.90;;;;;;5066094;28;20388;-81
2024/03/19 06:07:01;;;;;;;1.70;1.60;;;6.90;99.90;;;;;;5069509;28;20464;-79
2024/03/19 06:09:29;;;;;;;2.20;1.83;;;6.50;99.90;;;;;;5072175;28;20382;-80
2024/03/19 06:11:56;;;;;;;2.75;2.00;;;6.70;99.90;;;;;;5084418;28;20923;-81
2024/03/19 06:14:22;;;;;;;2.20;1.60;;;6.80;99.90;;;;;;5068985;28;20435;-81
2024/03/19 06:16:47;;;;;;;2.70;1.87;;;7.20;99.90;;;;;;5068640;28;20404;-81
2024/03/19 06:19:14;;;;;;;2.80;1.60;;;6.70;99.90;;;;;;5065463;28;20393;-80
2024/03/19 06:21:40;;;;;;;1.70;1.60;;;6.60;99.90;;;;;;5065275;28;20388;-81
2024/03/19 06:24:05;;;;;;;2.10;1.90;;;7.00;99.90;;;;;;5087062;28;20390;-81
2024/03/19 06:26:31;;;;;;;2.20;2.00;;;7.20;99.90;;;;;;5071999;28;20472;-80
2024/03/19 06:28:56;;;;;;;2.30;1.95;;;7.10;99.90;;;;;;5061987;28;20426;-80
2024/03/19 06:31:22;;;;;;;2.10;1.85;;;7.00;99.90;;;;;;5086360;28;20387;-80
2024/03/19 06:33:48;;;;;;;2.70;1.90;;;7.30;99.90;;;;;;5069513;28;21072;-80
2024/03/19 06:36:13;;;;;;;2.10;1.75;;;7.10;99.90;;;;;;5070530;28;20386;-80
2024/03/19 06:38:39;;;;;;;2.78;1.90;;;7.50;99.90;;;;;;5054542;28;20708;-80
2024/03/19 06:41:05;;;;;;;2.58;1.70;;;7.70;99.90;;;;;;5050851;28;20384;-80
2024/03/19 06:43:30;;;;;;;2.10;1.90;;;8.00;99.90;;;;;;5049280;28;20420;-79
2024/03/19 06:45:56;;;;;;;2.57;1.70;;;8.00;99.90;;;;;;5049087;28;20429;-80
2024/03/19 06:48:22;;;;;;;1.80;1.70;;;8.10;99.90;;;;;;5063274;28;20414;-81
2024/03/19 06:50:48;;;;;;;2.90;1.40;;;8.00;99.90;;;;;;5071169;28;20410;-81
2024/03/19 06:53:15;;;;;;;1.80;1.70;;;7.60;99.90;;;;;;5071285;28;20883;-82
2024/03/19 06:55:41;;;;;;;2.20;2.00;;;8.10;99.90;;;;;;5073229;28;20836;-80
2024/03/19 06:58:06;;;;;;;1.65;1.50;;;7.80;99.90;;;;;;5069940;28;20474;-80
2024/03/19 07:00:32;;;;;;;2.00;1.80;;;7.30;99.90;;;;;;5074902;28;20872;-81
2024/03/19 07:02:58;;;;;;;2.58;1.92;;;7.90;99.90;;;;;;5075143;28;20422;-81
2024/03/19 07:05:24;;;;;;;2.40;2.00;;;8.00;99.90;;;;;;5066453;28;20840;-81
2024/03/19 07:07:52;;;;;;;2.00;1.80;;;8.40;99.90;;;;;;5078633;28;20444;-79
2024/03/19 07:10:18;;;;;;;2.33;1.70;;;8.50;99.90;;;;;;5081675;28;21688;-80
2024/03/19 07:12:44;;;;;;;2.38;1.40;;;8.50;99.90;;;;;;5078072;28;20391;-79
2024/03/19 07:15:10;;;;;;;1.95;1.75;;;9.00;99.90;;;;;;5079167;28;20391;-81
2024/03/19 07:17:39;;;;;;;3.60;1.85;;;8.80;99.90;;;;;;5078749;28;20443;-81
2024/03/19 07:20:09;;;;;;;2.30;1.60;;;8.50;99.90;;;;;;5077125;28;20380;-81
2024/03/19 07:22:40;;;;;;;2.60;1.70;;;9.10;99.90;;;;;;5079475;28;20398;-78
2024/03/19 07:25:07;;;;;;;1.90;1.80;;;9.10;99.90;;;;;;5076396;28;20411;-78
2024/03/19 07:27:40;;;;;;;1.83;1.73;;;9.10;99.90;;;;;;5077632;28;20380;-79
2024/03/19 07:30:15;;;;;;;2.43;1.50;;;9.00;99.90;;;;;;5076371;28;20460;-79
2024/03/19 07:32:42;;;;;;;3.00;1.52;;;9.80;99.90;;;;;;5074968;28;20391;-79
2024/03/19 07:35:09;;;;;;;1.70;1.55;;;9.30;99.90;;;;;;5073206;28;20395;-78
2024/03/19 07:37:38;;;;;;;1.40;1.30;;;9.50;99.90;;;;;;5075189;28;20404;-80
2024/03/19 07:40:10;;;;;;;1.70;1.50;;;9.20;99.90;;;;;;5075045;28;20451;-80
2024/03/19 07:42:37;;;;;;;3.08;2.40;;;9.50;99.90;;;;;;5073060;28;20426;-79
2024/03/19 07:45:03;;;;;;;2.55;2.00;;;9.80;99.90;;;;;;5073708;28;20404;-79
2024/03/19 07:47:29;;;;;;;1.70;1.60;;;10.10;99.90;;;;;;5074937;28;20425;-80
2024/03/19 07:49:55;;;;;;;1.70;1.60;;;9.90;99.90;;;;;;5074649;28;20425;-79
2024/03/19 07:52:20;;;;;;;3.53;2.33;;;10.80;99.90;;;;;;5072327;28;20891;-79
2024/03/19 07:54:46;;;;;;;4.10;2.60;;;10.40;99.90;;;;;;5073379;28;20400;-81
2024/03/19 07:57:11;;;;;;;3.67;2.55;;;10.30;99.90;;;;;;5074488;28;20376;-81
2024/03/19 07:59:37;;;;;;;4.90;3.60;;;12.30;99.90;;;;;;5073559;28;20392;-81
2024/03/19 08:02:04;;;;;;;3.70;3.40;;;10.10;99.90;;;;;;5074506;28;20459;-80
2024/03/19 08:04:31;;;;;;;3.50;3.20;;;11.10;99.90;;;;;;5074163;28;21044;-81
2024/03/19 08:06:56;;;;;;;3.58;3.03;;;11.10;99.90;;;;;;5073616;28;20380;-80
2024/03/19 08:09:22;;;;;;;3.90;3.10;;;11.40;99.90;;;;;;5074426;28;20453;-80
2024/03/19 08:11:48;;;;;;;3.63;3.33;;;;;;;;;;5074859;28;20886;-81
2024/03/19 08:14:13;;;;;;;3.87;3.50;;;11.20;99.90;;;;;;5073748;28;20392;-81
2024/03/19 08:16:39;;;;;;;3.80;3.50;;;11.50;99.90;;;;;;5079202;28;20441;-81
2024/03/19 08:19:08;;;;;;;4.70;3.90;;;10.60;99.90;;;;;;5074843;28;20398;-81
2024/03/19 08:21:35;;;;;;;5.45;3.92;;;10.00;99.90;;;;;;5074645;28;20388;-80
2024/03/19 08:24:01;;;;;;;4.43;3.72;;;11.60;99.90;;;;;;5074012;28;20395;-80
2024/03/19 08:26:27;;;;;;;4.50;3.90;;;11.40;99.90;;;;;;5065261;28;20422;-81
2024/03/19 08:28:52;;;;;;;4.87;3.67;;;11.10;99.90;;;;;;5075281;28;20372;-81
2024/03/19 08:31:18;;;;;;;4.10;3.70;;;11.00;99.90;;;;;;5073688;28;20427;-80
2024/03/19 08:33:43;;;;;;;6.55;4.15;;;11.00;99.90;;;;;;5073208;28;20795;-81
2024/03/19 08:36:10;;;;;;;4.63;3.70;;;11.00;99.90;;;;;;5073145;28;20384;-81
2024/03/19 08:38:36;;;;;;;6.32;4.10;;;11.30;99.90;;;;;;5075584;28;20952;-84
2024/03/19 08:41:03;;;;;;;4.20;3.80;;;11.30;99.90;;;;;;5075701;28;20380;-83
2024/03/19 08:43:29;;;;;;;5.10;3.65;;;11.20;99.90;;;;;;5075080;28;20445;-83
2024/03/19 08:45:55;;;;;;;4.03;3.63;;;12.20;99.90;;;;;;5065586;28;20485;-84
2024/03/19 08:48:21;;;;;;;3.80;3.40;;;11.60;99.90;;;;;;5076109;28;20795;-84
2024/03/19 08:50:46;;;;;;;4.47;3.53;;;11.20;99.90;;;;;;5075033;28;20411;-83
2024/03/19 08:53:12;;;;;;;4.05;3.20;;;11.40;99.90;;;;;;5075312;28;20392;-83
2024/03/19 08:55:38;;;;;;;5.70;4.07;;;;;;;;;;5074549;28;20444;-84
2024/03/19 08:58:08;;;;;;;3.65;3.30;;;12.30;99.90;;;;;;5074717;28;20376;-83
2024/03/19 09:00:33;;;;;;;3.60;2.87;;;12.40;99.90;;;;;;5076334;28;20887;-83
2024/03/19 09:02:59;;;;;;;2.80;2.33;;;12.00;99.90;;;;;;5081177;28;20392;-83
2024/03/19 09:05:25;;;;;;;6.13;2.72;;;12.30;99.90;;;;;;5074311;28;20415;-83
2024/03/19 09:07:51;;;;;;;3.60;2.53;;;12.20;99.90;;;;;;5074739;28;20838;-84
2024/03/19 09:10:17;;;;;;;5.18;2.85;;;12.30;99.90;;;;;;5074783;28;20376;-81
2024/03/19 09:12:43;;;;;;;4.53;2.38;;;12.90;99.90;;;;;;5073971;28;20379;-81
2024/03/19 09:15:12;;;;;;;3.10;2.00;;;12.20;99.90;;;;;;5073639;28;20395;-81
2024/03/19 09:17:41;;;;;;;4.00;2.53;;;12.40;99.90;;;;;;5073055;28;20459;-84
2024/03/19 09:20:07;;;;;;;2.90;2.10;;;12.50;99.90;;;;;;5081534;28;20383;-80
2024/03/19 09:22:34;;;;;;;2.50;1.75;;;12.30;99.90;;;;;;5080461;28;20400;-80
2024/03/19 09:25:00;;;;;;;2.13;1.90;;;12.50;99.90;;;;;;5077345;28;20454;-81
2024/03/19 09:27:26;;;;;;;3.35;2.17;;;12.70;99.90;;;;;;5078071;28;20376;-81
2024/03/19 09:29:52;;;;;;;2.08;1.88;;;12.90;99.90;;;;;;5067326;28;20893;-83
2024/03/19 09:32:18;;;;;;;1.80;1.70;;;12.60;99.90;;;;;;5064041;28;20459;-82
2024/03/19 09:34:44;;;;;;;1.90;1.70;;;12.40;99.90;;;;;;5073566;28;20596;-83
2024/03/19 09:37:10;;;;;;;2.73;1.80;;;13.10;99.90;;;;;;5072954;28;20391;-83
2024/03/19 09:39:35;;;;;;;1.80;1.70;;;13.20;99.90;;;;;;5071805;28;20475;-82
2024/03/19 09:42:08;;;;;;;3.70;1.80;;;13.10;99.90;;;;;;5073129;28;20383;-82
2024/03/19 09:44:34;;;;;;;4.00;2.00;;;13.50;99.90;;;;;;5068509;28;20744;-83
2024/03/19 09:47:00;;;;;;;2.63;2.00;;;12.80;99.90;;;;;;5056338;28;20803;-82
2024/03/19 09:49:32;;;;;;;2.57;1.93;;;12.90;99.90;;;;;;5058622;28;20380;-82
2024/03/19 09:52:09;;;;;;;1.87;1.77;;;13.50;99.90;;;;;;5072954;28;20411;-81
2024/03/19 09:54:35;;;;;;;2.00;1.80;;;13.30;99.90;;;;;;5073464;28;20464;-82
2024/03/19 09:57:04;;;;;;;2.70;2.20;;;13.80;99.90;;;;;;5073142;28;20931;-82
2024/03/19 09:59:31;;;;;;;3.70;2.30;;;13.40;99.90;;;;;;5073129;28;20755;-82
2024/03/19 10:01:57;;;;;;;3.15;2.30;;;13.10;99.90;;;;;;5063857;28;20377;-81
2024/03/19 10:04:23;;;;;;;4.45;2.53;;;12.90;99.90;;;;;;5070087;28;20384;-82
2024/03/19 10:06:50;;;;;;;2.60;2.40;;;13.50;99.90;;;;;;5072389;28;20412;-81
2024/03/19 10:09:19;;;;;;;4.80;2.50;;;14.60;99.90;;;;;;5082910;28;20367;-81
2024/03/19 10:11:46;;;;;;;2.80;2.60;;;13.60;99.90;;;;;;5083935;28;20387;-80
2024/03/19 10:14:12;;;;;;;3.67;2.63;;;16.70;99.90;;;;;;5083116;28;20383;-81
2024/03/19 10:16:50;;;;;;;2.60;2.40;;;14.10;99.90;;;;;;5083113;28;20474;-82
2024/03/19 10:19:18;;;;;;;2.95;2.60;;;13.90;99.90;;;;;;5086407;28;20384;-80
2024/03/19 10:21:44;;;;;;;4.93;3.20;;;13.90;99.90;;;;;;5084849;28;20463;-81
2024/03/19 10:24:14;;;;;;;2.50;2.30;;;14.00;99.90;;;;;;5074472;28;20477;-82
2024/03/19 10:26:41;;;;;;;3.30;3.00;;;14.70;99.90;;;;;;5054248;28;20435;-82
2024/03/19 10:29:14;;;;;;;3.47;2.92;;;14.10;99.90;;;;;;5057887;28;20401;-82
2024/03/19 10:31:41;;;;;;;4.45;3.20;;;13.50;99.90;;;;;;5056318;28;20397;-83
2024/03/19 10:34:16;;;;;;;3.30;3.00;;;16.50;99.90;;;;;;5056855;28;20401;-82
2024/03/19 10:36:46;;;;;;;4.20;3.50;;;14.70;99.90;;;;;;5055772;28;20394;-81
2024/03/19 10:39:12;;;;;;;3.13;2.83;;;14.30;99.90;;;;;;5058116;28;20385;-81
2024/03/19 10:41:37;;;;;;;3.40;3.10;;;14.40;99.90;;;;;;5057519;28;20753;-81
2024/03/19 10:44:04;;;;;;;4.20;3.72;;;14.10;99.90;;;;;;5055733;28;20381;-82
2024/03/19 10:46:33;;;;;;;4.75;4.00;;;14.30;99.90;;;;;;5055467;28;20492;-82
2024/03/19 10:48:59;;;;;;;4.22;3.65;;;;;;;;;;5057426;28;20390;-83
2024/03/19 10:51:26;;;;;;;4.70;3.80;;;14.20;99.90;;;;;;5056291;28;20455;-81
2024/03/19 10:53:56;;;;;;;4.10;3.45;;;14.00;99.90;;;;;;5056928;28;20408;-83
2024/03/19 10:56:29;;;;;;;3.63;3.33;;;15.10;99.90;;;;;;5056513;28;20393;-81
2024/03/19 10:58:56;;;;;;;4.47;3.40;;;14.60;99.90;;;;;;5055114;28;20407;-81
2024/03/19 11:01:21;;;;;;;4.10;3.40;;;14.30;99.90;;;;;;5054976;28;20385;-81
2024/03/19 11:03:53;;;;;;;3.83;2.95;;;15.50;99.90;;;;;;5054797;28;20387;-82
2024/03/19 11:06:22;;;;;;;3.20;2.90;;;14.70;99.90;;;;;;5055678;28;20447;-81
2024/03/19 11:08:55;;;;;;;3.15;2.83;;;14.70;99.90;;;;;;5055199;28;20385;-80
2024/03/19 11:11:35;;;;;;;4.10;3.70;;;14.40;99.90;;;;;;5056864;28;20432;-81
2024/03/19 11:14:04;;;;;;;4.60;3.50;;;14.70;99.90;;;;;;5055467;28;20424;-82
2024/03/19 11:16:39;;;;;;;5.07;4.30;;;15.10;99.90;;;;;;5055818;28;20397;-82
2024/03/19 11:19:18;;;;;;;4.70;4.30;;;14.80;99.90;;;;;;5054850;28;20402;-82
2024/03/19 11:21:47;;;;;;;5.95;4.13;;;17.70;99.90;;;;;;5054888;28;20381;-82
2024/03/19 11:24:28;;;;;;;5.28;4.78;;;15.20;99.90;;;;;;5059811;28;20387;-82
2024/03/19 11:26:58;;;;;;;5.80;4.53;;;15.40;99.90;;;;;;5076128;28;20404;-82
2024/03/19 11:29:37;;;;;;;3.90;3.60;;;15.30;99.90;;;;;;5076071;28;20375;-81
2024/03/19 11:32:04;;;;;;;3.78;3.47;;;15.60;99.90;;;;;;5076693;28;20440;-83
2024/03/19 11:34:30;;;;;;;4.00;3.50;;;;;;;;;;5076661;28;20402;-81
2024/03/19 11:36:56;;;;;;;4.03;3.63;;;16.70;99.90;;;;;;5075961;28;20384;-80
2024/03/19 11:39:22;;;;;;;4.30;3.90;;;17.30;99.90;;;;;;5089004;28;20380;-81
2024/03/19 11:41:48;;;;;;;5.90;3.80;;;18.50;99.90;;;;;;5089807;28;20406;-82
2024/03/19 11:44:16;;;;;;;5.10;4.63;;;17.00;99.90;;;;;;5085416;28;20388;-82
2024/03/19 11:46:43;;;;;;;4.32;4.03;;;17.20;99.90;;;;;;5090855;28;20930;-83
2024/03/19 11:49:26;;;;;;;3.80;3.50;;;19.30;99.90;;;;;;5074381;28;20467;-82
2024/03/19 11:52:01;;;;;;;2.88;2.67;;;17.90;99.90;;;;;;5074554;28;20807;-82
2024/03/19 11:54:28;;;;;;;3.45;3.15;;;;;;;;;;5074390;28;20759;-82
2024/03/19 11:56:55;;;;;;;3.38;3.08;;;17.40;99.90;;;;;;5090924;28;21087;-82
2024/03/19 11:59:25;;;;;;;3.88;3.08;;;17.20;99.90;;;;;;5076182;28;20376;-82
2024/03/19 12:01:52;;;;;;;3.22;2.92;;;18.60;99.90;;;;;;5078684;28;20380;-82
2024/03/19 12:04:18;;;;;;;3.50;3.20;;;20.70;99.90;;;;;;5080120;28;20415;-81
2024/03/19 12:06:48;;;;;;;3.73;3.43;;;18.50;99.90;;;;;;5096479;28;20411;-82
2024/03/19 12:09:16;;;;;;;3.65;3.35;;;18.60;99.90;;;;;;5075323;28;20988;-82
2024/03/19 12:11:42;;;;;;;4.05;3.65;;;19.10;99.90;;;;;;5074926;28;20437;-83
2024/03/19 12:14:13;;;;;;;3.63;3.30;;;19.90;99.90;;;;;;5074467;28;20388;-83
2024/03/19 12:16:40;;;;;;;3.10;2.80;;;;;;;;;;5074929;28;20387;-82
2024/03/19 12:19:05;;;;;;;2.30;2.10;;;17.20;99.90;;;;;;5075248;28;20382;-82
2024/03/19 12:21:37;;;;;;;2.53;2.33;;;17.60;99.90;;;;;;5075220;28;20388;-82
2024/03/19 12:24:04;;;;;;;2.70;2.40;;;18.20;99.90;;;;;;5070566;28;20404;-81
2024/03/19 12:26:29;;;;;;;2.72;2.53;;;18.60;99.90;;;;;;5053894;28;20416;-82
2024/03/19 12:28:55;;;;;;;3.00;2.70;;;18.30;99.90;;;;;;5053999;28;20386;-82
2024/03/19 12:31:24;;;;;;;2.70;2.50;;;21.50;99.90;;;;;;5055783;28;20428;-81
2024/03/19 12:34:05;;;;;;;3.05;2.42;;;19.20;99.90;;;;;;5054982;28;20385;-82
2024/03/19 12:36:30;;;;;;;2.55;2.13;;;19.00;99.90;;;;;;5053168;28;20761;-82
2024/03/19 12:38:56;;;;;;;2.78;2.08;;;18.90;99.90;;;;;;5053548;28;20401;-81
2024/03/19 12:41:22;;;;;;;2.30;2.10;;;19.90;99.90;;;;;;5055149;28;20482;-83
2024/03/19 12:43:49;;;;;;;2.95;2.25;;;20.40;99.90;;;;;;5062072;28;20390;-82
2024/03/19 12:46:15;;;;;;;2.47;1.88;;;19.40;99.90;;;;;;5067803;28;20463;-82
2024/03/19 12:48:41;;;;;;;4.00;2.20;;;18.70;99.90;;;;;;5054863;28;20381;-81
2024/03/19 12:51:08;;;;;;;1.60;1.50;;;18.50;99.90;;;;;;5058164;28;20381;-81
2024/03/19 12:53:33;;;;;;;1.70;1.50;;;18.30;99.90;;;;;;5056233;28;20380;-82